createdAt,value
2023-10-09T00:00:33.207Z,8.25
2023-10-09T00:03:02.166Z,13.40
2023-10-09T00:05:41.029Z,10.18
2023-10-09T00:08:10.513Z,13.70
2023-10-09T00:10:46.901Z,10.65
2023-10-09T00:13:14.619Z,9.45
2023-10-09T00:15:42.843Z,11.57
2023-10-09T00:18:13.676Z,8.82
2023-10-09T00:20:44.189Z,8.50
2023-10-09T00:23:17.138Z,9.13
2023-10-09T00:26:07.767Z,8.73
2023-10-09T00:28:36.484Z,9.18
2023-10-09T00:31:08.840Z,6.93
2023-10-09T00:33:36.598Z,7.68
2023-10-09T00:36:11.249Z,5.78
2023-10-09T00:38:46.507Z,7.60
2023-10-09T00:41:20.707Z,9.55
2023-10-09T00:43:51.095Z,13.93
2023-10-09T00:46:26.031Z,7.55
2023-10-09T00:48:56.581Z,7.20
2023-10-09T00:51:28.241Z,9.10
2023-10-09T00:53:59.232Z,9.00
2023-10-09T00:56:40.438Z,7.15
2023-10-09T00:59:15.896Z,11.70
2023-10-09T01:01:57.865Z,12.77
2023-10-09T01:04:27.502Z,12.57
2023-10-09T01:07:09.839Z,8.38
2023-10-09T01:09:39.671Z,10.10
2023-10-09T01:12:07.939Z,11.60
2023-10-09T01:14:37.937Z,11.75
2023-10-09T01:17:10.289Z,11.18
2023-10-09T01:19:39.286Z,9.25
2023-10-09T01:22:14.931Z,11.32
2023-10-09T01:24:44.922Z,8.50
2023-10-09T01:27:17.025Z,10.45
2023-10-09T01:29:47.433Z,10.45
2023-10-09T01:32:20.575Z,9.95
2023-10-09T01:34:50.406Z,9.05
2023-10-09T01:37:20.841Z,8.32
2023-10-09T01:39:52.247Z,11.82
2023-10-09T01:42:29.206Z,9.98
2023-10-09T01:45:01.709Z,10.52
2023-10-09T01:47:32.974Z,12.95
2023-10-09T01:50:06.060Z,11.68
2023-10-09T01:52:37.233Z,8.68
2023-10-09T01:55:16.748Z,12.48
2023-10-09T01:57:46.036Z,11.77
2023-10-09T02:00:24.581Z,10.43
2023-10-09T02:02:53.043Z,10.20
2023-10-09T02:05:26.442Z,8.05
2023-10-09T02:07:54.286Z,10.77
2023-10-09T02:10:27.199Z,11.02
2023-10-09T02:12:59.176Z,11.52
2023-10-09T02:18:41.284Z,9.63
2023-10-09T02:21:15.653Z,12.55
2023-10-09T02:23:47.663Z,10.68
2023-10-09T02:26:21.423Z,9.95
2023-10-09T02:28:54.750Z,7.18
2023-10-09T02:31:24.452Z,9.35
2023-10-09T02:33:55.641Z,10.27
2023-10-09T02:36:23.575Z,7.53
2023-10-09T02:38:54.466Z,8.70
2023-10-09T02:41:29.348Z,11.02
2023-10-09T02:43:57.475Z,7.93
2023-10-09T02:46:31.489Z,10.60
2023-10-09T02:49:05.108Z,10.73
2023-10-09T02:51:34.788Z,11.52
2023-10-09T02:54:09.185Z,11.48
2023-10-09T02:56:44.198Z,13.50
2023-10-09T02:59:11.878Z,10.15
2023-10-09T03:01:40.528Z,11.60
2023-10-09T03:04:12.235Z,12.85
2023-10-09T03:06:44.542Z,12.10
2023-10-09T03:09:18.772Z,11.68
2023-10-09T03:11:49.222Z,11.30
2023-10-09T03:14:18.081Z,10.90
2023-10-09T03:16:48.190Z,9.30
2023-10-09T03:19:17.611Z,14.95
2023-10-09T03:21:45.351Z,12.73
2023-10-09T03:24:13.895Z,16.17
2023-10-09T03:26:41.756Z,11.70
2023-10-09T03:29:11.324Z,14.05
2023-10-09T03:31:39.383Z,16.02
2023-10-09T03:34:07.548Z,14.98
2023-10-09T03:36:39.821Z,11.73
2023-10-09T03:39:19.532Z,14.10
2023-10-09T03:41:48.434Z,12.80
2023-10-09T03:44:19.226Z,11.32
2023-10-09T03:46:47.738Z,15.55
2023-10-09T03:49:23.158Z,16.27
2023-10-09T03:51:52.481Z,20.30
2023-10-09T03:54:22.050Z,16.33
2023-10-09T03:56:51.125Z,13.10
2023-10-09T03:59:21.814Z,14.27
2023-10-09T04:01:51.769Z,15.73
2023-10-09T04:04:19.936Z,15.38
2023-10-09T04:06:48.559Z,19.35
2023-10-09T04:09:36.809Z,16.58
2023-10-09T04:12:26.218Z,14.68
2023-10-09T04:14:59.078Z,17.77
2023-10-09T04:17:36.617Z,18.17
2023-10-09T04:20:47.775Z,15.88
2023-10-09T04:23:17.750Z,17.27
2023-10-09T04:25:52.049Z,16.45
2023-10-09T04:28:20.816Z,15.10
2023-10-09T04:30:54.706Z,18.75
2023-10-09T04:33:41.936Z,14.25
2023-10-09T04:36:24.215Z,16.23
2023-10-09T04:39:17.128Z,11.70
2023-10-09T04:42:15.680Z,14.82
2023-10-09T04:45:00.718Z,16.88
2023-10-09T04:47:37.017Z,19.00
2023-10-09T04:50:12.801Z,15.60
2023-10-09T04:52:54.523Z,13.63
2023-10-09T04:55:25.745Z,14.10
2023-10-09T04:58:10.006Z,16.13
2023-10-09T05:01:03.344Z,13.90
2023-10-09T05:03:47.355Z,20.98
2023-10-09T05:06:44.902Z,17.15
2023-10-09T05:09:16.370Z,18.58
2023-10-09T05:12:10.949Z,13.38
2023-10-09T05:14:48.969Z,16.55
2023-10-09T05:17:24.677Z,21.08
2023-10-09T05:20:18.788Z,15.13
2023-10-09T05:22:58.337Z,19.92
2023-10-09T05:25:54.392Z,16.70
2023-10-09T05:28:32.301Z,19.52
2023-10-09T05:31:07.809Z,15.43
2023-10-09T05:36:38.870Z,20.17
2023-10-09T05:39:42.272Z,16.17
2023-10-09T05:42:13.381Z,19.83
2023-10-09T05:45:13.000Z,16.77
2023-10-09T05:47:54.404Z,22.50
2023-10-09T05:50:36.968Z,22.88
2023-10-09T05:53:27.760Z,20.80
2023-10-09T05:56:12.615Z,28.73
2023-10-09T05:58:57.468Z,20.50
2023-10-09T06:01:44.623Z,25.50
2023-10-09T06:04:18.769Z,21.98
2023-10-09T06:06:47.267Z,17.73
2023-10-09T06:09:32.771Z,20.90
2023-10-09T06:12:17.890Z,15.98
2023-10-09T06:15:02.636Z,18.67
2023-10-09T06:17:44.862Z,19.52
2023-10-09T06:20:28.228Z,20.15
2023-10-09T06:22:58.909Z,20.38
2023-10-09T06:25:47.011Z,23.83
2023-10-09T06:28:14.965Z,19.88
2023-10-09T06:30:47.692Z,19.15
2023-10-09T06:33:31.060Z,20.42
2023-10-09T06:36:09.519Z,20.38
2023-10-09T06:38:53.458Z,27.98
2023-10-09T06:41:35.959Z,17.35
2023-10-09T06:44:07.607Z,22.00
2023-10-09T06:46:53.854Z,20.65
2023-10-09T06:49:30.354Z,21.15
2023-10-09T06:52:14.673Z,22.00
2023-10-09T06:54:50.728Z,23.65
2023-10-09T06:57:40.606Z,21.70
2023-10-09T07:00:31.752Z,22.42
2023-10-09T07:03:06.488Z,21.77
2023-10-09T07:05:49.691Z,24.00
2023-10-09T07:08:33.400Z,22.55
2023-10-09T07:11:25.506Z,21.30
2023-10-09T07:13:57.444Z,25.55
2023-10-09T07:16:30.115Z,20.15
2023-10-09T07:19:10.867Z,26.98
2023-10-09T07:21:54.032Z,21.08
2023-10-09T07:24:26.142Z,22.88
2023-10-09T07:27:03.152Z,18.75
2023-10-09T07:29:48.662Z,22.48
2023-10-09T07:34:54.893Z,19.95
2023-10-09T07:37:24.075Z,22.27
2023-10-09T07:39:59.449Z,22.55
2023-10-09T07:42:45.005Z,28.23
2023-10-09T07:45:34.852Z,23.08
2023-10-09T07:48:06.501Z,24.45
2023-10-09T07:50:42.275Z,25.35
2023-10-09T07:53:27.412Z,21.02
2023-10-09T07:55:59.508Z,20.50
2023-10-09T07:58:27.654Z,25.42
2023-10-09T08:01:17.466Z,20.73
2023-10-09T08:03:50.106Z,20.05
2023-10-09T08:07:04.402Z,20.83
2023-10-09T08:09:47.954Z,23.67
2023-10-09T08:12:31.965Z,23.42
2023-10-09T08:15:13.947Z,19.15
2023-10-09T08:17:40.669Z,17.88
2023-10-09T08:20:13.417Z,19.08
2023-10-09T08:22:51.476Z,17.98
2023-10-09T08:25:29.137Z,15.30
2023-10-09T08:27:58.769Z,18.35
2023-10-09T08:30:51.699Z,18.88
2023-10-09T08:34:16.185Z,18.75
2023-10-09T08:36:32.552Z,20.63
2023-10-09T08:39:09.326Z,17.42
2023-10-09T08:41:38.483Z,21.25
2023-10-09T08:44:08.042Z,23.65
2023-10-09T08:46:38.210Z,17.77
2023-10-09T08:49:11.796Z,23.00
2023-10-09T08:51:39.936Z,21.20
2023-10-09T08:54:13.111Z,20.20
2023-10-09T08:56:50.747Z,19.90
2023-10-09T08:59:21.046Z,17.77
2023-10-09T09:01:53.103Z,24.15
2023-10-09T09:04:36.042Z,21.85
2023-10-09T09:07:05.380Z,19.65
2023-10-09T09:09:35.102Z,25.77
2023-10-09T09:12:03.437Z,23.63
2023-10-09T09:14:41.419Z,23.58
2023-10-09T09:17:12.669Z,23.88
2023-10-09T09:19:40.710Z,20.45
2023-10-09T09:22:15.033Z,22.35
2023-10-09T09:25:01.713Z,25.17
2023-10-09T09:27:50.625Z,21.38
2023-10-09T09:30:26.576Z,22.85
2023-10-09T09:33:08.367Z,19.95
2023-10-09T09:35:36.036Z,18.58
2023-10-09T09:38:06.488Z,19.80
2023-10-09T09:40:42.564Z,20.60
2023-10-09T09:43:22.693Z,22.48
2023-10-09T09:45:52.252Z,22.95
2023-10-09T09:48:20.256Z,21.67
2023-10-09T09:50:48.843Z,17.63
2023-10-09T09:53:18.792Z,18.80
2023-10-09T09:55:53.172Z,21.60
2023-10-09T09:58:21.627Z,19.20
2023-10-09T10:00:54.186Z,20.30
2023-10-09T10:03:26.804Z,19.45
2023-10-09T10:05:57.950Z,22.70
2023-10-09T10:08:32.950Z,21.17
2023-10-09T10:13:54.096Z,17.08
2023-10-09T10:16:22.297Z,16.92
2023-10-09T10:19:01.398Z,20.13
2023-10-09T10:21:39.901Z,16.92
2023-10-09T10:24:33.810Z,18.67
2023-10-09T10:27:25.953Z,21.13
2023-10-09T10:30:12.302Z,17.02
2023-10-09T10:32:55.177Z,20.63
2023-10-09T10:35:33.826Z,18.33
2023-10-09T10:38:12.724Z,21.60
2023-10-09T10:40:42.200Z,19.40
2023-10-09T10:43:14.888Z,22.63
2023-10-09T10:45:45.918Z,21.35
2023-10-09T10:48:24.467Z,18.00
2023-10-09T10:50:59.330Z,17.27
2023-10-09T10:53:30.432Z,18.63
2023-10-09T10:55:59.603Z,16.60
2023-10-09T10:58:36.684Z,15.43
2023-10-09T11:01:16.557Z,16.08
2023-10-09T11:04:00.108Z,13.60
2023-10-09T11:06:38.069Z,17.30
2023-10-09T11:09:22.381Z,14.65
2023-10-09T11:11:51.491Z,12.52
2023-10-09T11:14:24.646Z,19.63
2023-10-09T11:16:59.009Z,14.23
2023-10-09T11:19:33.724Z,13.45
2023-10-09T11:22:32.300Z,17.07
2023-10-09T11:25:13.689Z,16.40
2023-10-09T11:27:51.263Z,13.98
2023-10-09T11:30:34.213Z,16.20
2023-10-09T11:33:08.784Z,13.68
2023-10-09T11:35:37.177Z,19.75
2023-10-09T11:38:22.256Z,18.45
2023-10-09T11:43:53.402Z,16.05
2023-10-09T11:46:40.334Z,15.13
2023-10-09T11:49:27.224Z,17.85
2023-10-09T11:52:32.550Z,19.55
2023-10-09T11:55:01.208Z,13.05
2023-10-09T11:57:34.469Z,19.73
2023-10-09T12:00:02.817Z,16.70
2023-10-09T12:02:32.537Z,16.17
2023-10-09T12:05:00.368Z,16.70
2023-10-09T12:07:28.895Z,18.88
2023-10-09T12:09:57.849Z,19.85
2023-10-09T12:12:28.295Z,19.88
2023-10-09T12:14:55.974Z,15.40
2023-10-09T12:17:26.963Z,17.90
2023-10-09T12:19:57.503Z,16.45
2023-10-09T12:22:28.413Z,16.65
2023-10-09T12:24:58.347Z,12.45
2023-10-09T12:27:30.034Z,14.18
2023-10-09T12:29:58.201Z,14.10
2023-10-09T12:32:26.241Z,19.38
2023-10-09T12:34:53.986Z,14.95
2023-10-09T12:37:24.822Z,17.83
2023-10-09T12:39:56.869Z,19.27
2023-10-09T12:42:24.798Z,17.08
2023-10-09T12:44:53.800Z,20.20
2023-10-09T12:47:21.630Z,16.92
2023-10-09T12:49:50.434Z,24.40
2023-10-09T12:52:18.330Z,16.25
2023-10-09T12:54:47.747Z,15.20
2023-10-09T12:57:16.462Z,15.00
2023-10-09T12:59:47.093Z,12.18
2023-10-09T13:02:30.040Z,13.57
2023-10-09T13:04:58.415Z,19.63
2023-10-09T13:07:26.849Z,15.35
2023-10-09T13:10:08.649Z,18.85
2023-10-09T13:12:39.624Z,13.52
2023-10-09T13:15:10.949Z,13.73
2023-10-09T13:17:40.363Z,12.20
2023-10-09T13:20:14.376Z,13.80
2023-10-09T13:22:42.766Z,13.27
2023-10-09T13:25:31.503Z,14.48
2023-10-09T13:28:04.717Z,12.85
2023-10-09T13:30:41.162Z,14.13
2023-10-09T13:33:18.419Z,13.88
2023-10-09T13:35:52.120Z,10.95
2023-10-09T13:38:20.005Z,13.85
2023-10-09T13:40:47.702Z,12.30
2023-10-09T13:43:18.330Z,14.30
2023-10-09T13:45:51.096Z,14.07
2023-10-09T13:48:22.506Z,17.55
2023-10-09T13:50:50.617Z,10.63
2023-10-09T13:53:19.341Z,13.88
2023-10-09T13:55:48.410Z,13.77
2023-10-09T13:58:21.963Z,16.10
2023-10-09T14:00:51.260Z,15.63
2023-10-09T14:03:23.821Z,14.05
2023-10-09T14:05:56.013Z,12.90
2023-10-09T14:08:24.640Z,15.98
2023-10-09T14:10:52.521Z,11.82
2023-10-09T14:13:27.459Z,14.98
2023-10-09T14:18:25.628Z,14.50
2023-10-09T14:20:57.786Z,16.17
2023-10-09T14:23:32.585Z,15.43
2023-10-09T14:26:03.397Z,16.58
2023-10-09T14:28:31.154Z,12.40
2023-10-09T14:31:00.641Z,16.77
2023-10-09T14:33:37.992Z,17.15
2023-10-09T14:36:06.996Z,14.20
2023-10-09T14:38:39.669Z,13.68
2023-10-09T14:41:12.710Z,15.65
2023-10-09T14:43:41.042Z,14.98
2023-10-09T14:46:12.021Z,15.60
2023-10-09T14:48:51.030Z,17.05
2023-10-09T14:51:18.784Z,14.75
2023-10-09T14:53:46.890Z,16.27
2023-10-09T14:56:17.243Z,19.70
2023-10-09T14:58:48.028Z,18.73
2023-10-09T15:01:19.673Z,13.68
2023-10-09T15:03:50.460Z,14.15
2023-10-09T15:06:19.702Z,16.48
2023-10-09T15:08:47.775Z,16.33
2023-10-09T15:11:15.975Z,14.18
2023-10-09T15:13:43.945Z,14.82
2023-10-09T15:16:12.693Z,12.88
2023-10-09T15:18:40.421Z,16.67
2023-10-09T15:21:10.012Z,14.27
2023-10-09T15:23:38.272Z,18.17
2023-10-09T15:26:08.164Z,13.35
2023-10-09T15:28:36.449Z,14.55
2023-10-09T15:31:05.090Z,14.85
2023-10-09T15:33:36.157Z,15.68
2023-10-09T15:36:13.093Z,15.63
2023-10-09T15:38:40.765Z,14.80
2023-10-09T15:41:08.829Z,13.68
2023-10-09T15:43:37.390Z,15.70
2023-10-09T15:46:05.775Z,16.30
2023-10-09T15:48:34.184Z,14.25
2023-10-09T15:51:02.138Z,17.02
2023-10-09T15:53:32.060Z,15.02
2023-10-09T15:55:59.848Z,13.15
2023-10-09T15:58:27.897Z,15.18
2023-10-09T16:00:55.647Z,17.20
2023-10-09T16:03:25.520Z,22.58
2023-10-09T16:05:53.455Z,16.95
2023-10-09T16:08:23.914Z,16.48
2023-10-09T16:10:53.048Z,12.23
2023-10-09T16:13:22.534Z,13.70
2023-10-09T16:15:50.841Z,16.63
2023-10-09T16:18:21.859Z,14.73
2023-10-09T16:20:50.363Z,15.63
2023-10-09T16:23:21.114Z,15.52
2023-10-09T16:25:49.111Z,15.90
2023-10-09T16:28:18.247Z,15.15
2023-10-09T16:30:45.977Z,12.23
2023-10-09T16:33:17.400Z,16.85
2023-10-09T16:35:47.599Z,14.98
2023-10-09T16:38:15.576Z,17.63
2023-10-09T16:40:48.222Z,17.30
2023-10-09T16:43:19.258Z,22.95
2023-10-09T16:45:48.540Z,22.83
2023-10-09T16:48:16.984Z,20.90
2023-10-09T16:50:49.272Z,16.40
2023-10-09T16:53:18.106Z,13.52
2023-10-09T16:55:46.132Z,21.23
2023-10-09T16:58:14.605Z,14.98
2023-10-09T17:00:42.336Z,17.88
2023-10-09T17:03:12.682Z,17.60
2023-10-09T17:05:56.354Z,14.68
2023-10-09T17:08:24.378Z,20.40
2023-10-09T17:10:52.725Z,22.75
2023-10-09T17:13:22.263Z,23.95
2023-10-09T17:15:54.336Z,21.13
2023-10-09T17:18:26.344Z,19.17
2023-10-09T17:20:57.094Z,17.92
2023-10-09T17:23:27.386Z,17.88
2023-10-09T17:25:59.717Z,21.58
2023-10-09T17:28:28.511Z,19.45
2023-10-09T17:31:01.861Z,16.95
2023-10-09T17:33:34.613Z,16.52
2023-10-09T17:36:03.091Z,18.95
2023-10-09T17:38:33.429Z,19.40
2023-10-09T17:41:06.479Z,21.58
2023-10-09T17:43:36.628Z,23.15
2023-10-09T17:46:05.581Z,22.35
2023-10-09T17:48:35.198Z,23.70
2023-10-09T17:51:02.945Z,24.65
2023-10-09T17:53:31.846Z,19.30
2023-10-09T17:56:01.145Z,23.10
2023-10-09T17:58:29.571Z,25.45
2023-10-09T18:00:59.787Z,22.13
2023-10-09T18:03:31.282Z,25.35
2023-10-09T18:06:01.580Z,22.85
2023-10-09T18:08:29.271Z,19.92
2023-10-09T18:10:58.028Z,22.50
2023-10-09T18:13:27.003Z,23.60
2023-10-09T18:16:09.435Z,23.13
2023-10-09T18:18:36.866Z,24.33
2023-10-09T18:21:07.549Z,28.58
2023-10-09T18:23:36.685Z,31.65
2023-10-09T18:26:06.210Z,26.70
2023-10-09T18:28:38.144Z,20.90
2023-10-09T18:31:13.989Z,26.98
2023-10-09T18:33:43.620Z,24.92
2023-10-09T18:36:13.218Z,25.23
2023-10-09T18:38:44.057Z,24.85
2023-10-09T18:41:12.305Z,21.08
2023-10-09T18:43:41.143Z,21.50
2023-10-09T18:46:12.033Z,27.20
2023-10-09T18:48:39.988Z,26.17
2023-10-09T18:51:08.781Z,23.27
2023-10-09T18:53:38.219Z,25.85
2023-10-09T18:56:07.091Z,23.52
2023-10-09T18:58:35.137Z,29.20
2023-10-09T19:01:07.668Z,27.58
2023-10-09T19:03:35.484Z,30.58
2023-10-09T19:06:09.254Z,28.83
2023-10-09T19:08:38.932Z,27.17
2023-10-09T19:11:10.385Z,27.85
2023-10-09T19:13:39.939Z,24.98
2023-10-09T19:16:08.267Z,29.70
2023-10-09T19:18:38.957Z,30.30
2023-10-09T19:21:10.363Z,30.35
2023-10-09T19:23:40.766Z,33.25
2023-10-09T19:26:09.840Z,27.27
2023-10-09T19:28:39.100Z,30.67
2023-10-09T19:31:07.219Z,27.98
2023-10-09T19:33:36.847Z,26.27
2023-10-09T19:36:12.259Z,29.08
2023-10-09T19:38:41.542Z,32.58
2023-10-09T19:41:11.504Z,44.88
2023-10-09T19:43:39.302Z,55.03
2023-10-09T19:46:07.653Z,56.10
2023-10-09T19:48:35.843Z,52.67
2023-10-09T19:51:04.448Z,62.55
2023-10-09T19:53:32.372Z,58.80
2023-10-09T19:56:01.652Z,62.08
2023-10-09T19:58:33.140Z,58.70
2023-10-09T20:01:00.870Z,58.00
2023-10-09T20:03:29.136Z,63.35
2023-10-09T20:05:57.704Z,52.13
2023-10-09T20:08:30.537Z,37.22
2023-10-09T20:10:58.295Z,39.53
2023-10-09T20:13:27.278Z,36.72
2023-10-09T20:15:57.590Z,38.90
2023-10-09T20:18:25.357Z,44.08
2023-10-09T20:20:53.059Z,35.53
2023-10-09T20:23:22.142Z,28.38
2023-10-09T20:26:00.069Z,31.77
2023-10-09T20:28:30.187Z,23.85
2023-10-09T20:31:02.274Z,33.75
2023-10-09T20:33:34.521Z,29.45
2023-10-09T20:36:06.730Z,40.10
2023-10-09T20:38:34.499Z,45.90
2023-10-09T20:41:08.857Z,39.88
2023-10-09T20:43:41.926Z,35.53
2023-10-09T20:46:10.016Z,42.67
2023-10-09T20:48:38.590Z,35.08
2023-10-09T20:51:06.660Z,31.33
2023-10-09T20:53:35.641Z,37.45
2023-10-09T20:56:05.519Z,40.25
2023-10-09T20:58:34.058Z,46.70
2023-10-09T21:01:13.124Z,35.53
2023-10-09T21:03:41.016Z,53.58
2023-10-09T21:06:08.780Z,51.58
2023-10-09T21:08:36.674Z,49.35
2023-10-09T21:11:05.089Z,44.63
2023-10-09T21:13:33.584Z,76.43
2023-10-09T21:16:05.520Z,78.13
2023-10-09T21:18:36.499Z,78.43
2023-10-09T21:21:10.234Z,77.40
2023-10-09T21:23:38.048Z,71.25
2023-10-09T21:26:06.620Z,65.50
2023-10-09T21:28:36.688Z,57.42
2023-10-09T21:31:05.851Z,63.15
2023-10-09T21:33:35.393Z,53.55
2023-10-09T21:36:04.600Z,51.13
2023-10-09T21:38:32.304Z,165.25
2023-10-09T21:41:00.639Z,44.60
2023-10-09T21:43:32.294Z,242.60
2023-10-09T21:45:59.951Z,104.30
2023-10-09T21:48:27.723Z,70.38
2023-10-09T21:50:59.185Z,69.82
2023-10-09T21:53:29.018Z,63.63
2023-10-09T21:56:04.073Z,78.85
2023-10-09T21:58:33.334Z,73.32
2023-10-09T22:01:04.119Z,75.50
2023-10-09T22:03:32.412Z,108.95
2023-10-09T22:06:01.683Z,112.72
2023-10-09T22:08:29.816Z,103.20
2023-10-09T22:10:57.690Z,90.25
2023-10-09T22:13:27.442Z,86.00
2023-10-09T22:15:55.235Z,95.75
2023-10-09T22:18:24.976Z,86.60
2023-10-09T22:20:54.888Z,70.60
2023-10-09T22:23:34.049Z,87.63
2023-10-09T22:26:02.754Z,79.22
2023-10-09T22:28:34.472Z,91.35
2023-10-09T22:31:05.110Z,94.53
2023-10-09T22:33:46.725Z,93.05
2023-10-09T22:36:15.542Z,84.38
2023-10-09T22:38:44.965Z,72.10
2023-10-09T22:41:20.958Z,72.85
2023-10-09T22:43:49.720Z,95.25
2023-10-09T22:46:20.742Z,100.95
2023-10-09T22:48:52.684Z,102.50
2023-10-09T22:51:24.992Z,109.80
2023-10-09T22:53:54.055Z,115.95
2023-10-09T22:56:22.317Z,95.45
2023-10-09T22:58:53.048Z,85.65
2023-10-09T23:01:24.170Z,86.72
2023-10-09T23:04:17.146Z,100.35
2023-10-09T23:06:46.418Z,105.35
2023-10-09T23:09:32.082Z,81.00
2023-10-09T23:12:00.806Z,85.00
2023-10-09T23:14:28.870Z,71.22
2023-10-09T23:17:00.493Z,65.93
2023-10-09T23:19:41.539Z,67.63
2023-10-09T23:22:09.297Z,79.32
2023-10-09T23:24:50.383Z,58.92
2023-10-09T23:27:39.337Z,73.53
2023-10-09T23:30:13.796Z,73.68
2023-10-09T23:32:48.470Z,66.38
2023-10-09T23:35:20.906Z,60.72
2023-10-09T23:38:06.406Z,78.13
2023-10-09T23:40:41.895Z,58.50
2023-10-09T23:43:14.536Z,48.60
2023-10-09T23:45:42.611Z,56.05
2023-10-09T23:48:15.951Z,54.60
2023-10-09T23:50:45.272Z,54.25
2023-10-09T23:53:16.056Z,52.60
2023-10-09T23:55:45.935Z,64.03
2023-10-09T23:58:20.102Z,61.80
